sensor_id;sensor_type;location;lat;lon;timestamp;temperature;humidity
56542;DHT22;42438;53.174;6.730;2023-03-01T02:06:32;-2.90;99.90
56542;DHT22;42438;53.174;6.730;2023-03-01T02:09:08;-2.80;99.90
56542;DHT22;42438;53.174;6.730;2023-03-01T02:11:42;-3.10;99.90
56542;DHT22;42438;53.174;6.730;2023-03-01T02:14:15;-3.10;99.90
56542;DHT22;42438;53.174;6.730;2023-03-01T02:16:46;-3.20;99.90
56542;DHT22;42438;53.174;6.730;2023-03-01T02:19:44;-1.90;99.90
56542;DHT22;42438;53.174;6.730;2023-03-01T02:22:25;-2.80;99.90
56542;DHT22;42438;53.174;6.730;2023-03-01T02:27:53;-2.90;99.90
56542;DHT22;42438;53.174;6.730;2023-03-01T02:30:28;-2.90;99.90
56542;DHT22;42438;53.174;6.730;2023-03-01T02:33:02;-3.10;99.90
56542;DHT22;42438;53.174;6.730;2023-03-01T02:35:38;-3.10;99.90
56542;DHT22;42438;53.174;6.730;2023-03-01T02:38:09;-3.30;99.90
56542;DHT22;42438;53.174;6.730;2023-03-01T02:40:40;-3.40;99.90
56542;DHT22;42438;53.174;6.730;2023-03-01T02:43:12;-3.20;99.90
56542;DHT22;42438;53.174;6.730;2023-03-01T02:45:51;-3.20;99.90
56542;DHT22;42438;53.174;6.730;2023-03-01T02:48:23;-3.40;99.90
56542;DHT22;42438;53.174;6.730;2023-03-01T02:51:04;-3.40;99.90
56542;DHT22;42438;53.174;6.730;2023-03-01T02:54:02;-3.40;99.90
56542;DHT22;42438;53.174;6.730;2023-03-01T02:56:36;-3.40;99.90
56542;DHT22;42438;53.174;6.730;2023-03-01T02:59:07;-3.40;99.90
56542;DHT22;42438;53.174;6.730;2023-03-01T05:18:11;-3.90;99.90
56542;DHT22;42438;53.174;6.730;2023-03-01T05:20:41;-3.90;99.90
56542;DHT22;42438;53.174;6.730;2023-03-01T05:23:12;-4.10;99.90
56542;DHT22;42438;53.174;6.730;2023-03-01T05:25:43;-4.10;99.90
56542;DHT22;42438;53.174;6.730;2023-03-01T05:28:14;-4.10;99.90
56542;DHT22;42438;53.174;6.730;2023-03-01T05:30:46;-4.00;99.90
56542;DHT22;42438;53.174;6.730;2023-03-01T05:33:17;-4.10;99.90
56542;DHT22;42438;53.174;6.730;2023-03-01T05:35:48;-4.30;99.90
56542;DHT22;42438;53.174;6.730;2023-03-01T05:38:20;-4.40;99.90
56542;DHT22;42438;53.174;6.730;2023-03-01T05:40:51;-4.30;99.90
56542;DHT22;42438;53.174;6.730;2023-03-01T05:43:22;-4.10;99.90
56542;DHT22;42438;53.174;6.730;2023-03-01T05:45:52;-4.30;99.90
56542;DHT22;42438;53.174;6.730;2023-03-01T05:48:23;-4.30;99.90
56542;DHT22;42438;53.174;6.730;2023-03-01T05:50:54;-4.20;99.90
56542;DHT22;42438;53.174;6.730;2023-03-01T05:53:24;-4.10;99.90
56542;DHT22;42438;53.174;6.730;2023-03-01T05:55:56;-4.30;99.90
56542;DHT22;42438;53.174;6.730;2023-03-01T05:58:27;-4.00;99.90
56542;DHT22;42438;53.174;6.730;2023-03-01T06:00:58;-4.00;99.90
56542;DHT22;42438;53.174;6.730;2023-03-01T06:03:28;-4.10;99.90
56542;DHT22;42438;53.174;6.730;2023-03-01T06:05:59;-4.20;99.90
56542;DHT22;42438;53.174;6.730;2023-03-01T06:08:30;-4.30;99.90
56542;DHT22;42438;53.174;6.730;2023-03-01T06:11:00;-4.20;99.90
56542;DHT22;42438;53.174;6.730;2023-03-01T06:13:31;-4.30;99.90
56542;DHT22;42438;53.174;6.730;2023-03-01T06:16:05;-4.10;99.90
56542;DHT22;42438;53.174;6.730;2023-03-01T06:18:37;-4.30;99.90
56542;DHT22;42438;53.174;6.730;2023-03-01T06:21:08;-3.80;99.90
56542;DHT22;42438;53.174;6.730;2023-03-01T06:23:39;-4.40;99.90
56542;DHT22;42438;53.174;6.730;2023-03-01T06:26:10;-4.30;99.90
56542;DHT22;42438;53.174;6.730;2023-03-01T06:28:40;-4.40;99.90
56542;DHT22;42438;53.174;6.730;2023-03-01T06:31:11;-4.40;99.90
56542;DHT22;42438;53.174;6.730;2023-03-01T06:33:42;-4.40;99.90
56542;DHT22;42438;53.174;6.730;2023-03-01T06:36:15;-4.30;99.90
56542;DHT22;42438;53.174;6.730;2023-03-01T06:38:48;-4.20;99.90
56542;DHT22;42438;53.174;6.730;2023-03-01T06:41:19;-4.40;99.90
56542;DHT22;42438;53.174;6.730;2023-03-01T06:43:50;-4.20;99.90
56542;DHT22;42438;53.174;6.730;2023-03-01T06:46:21;-4.20;99.90
56542;DHT22;42438;53.174;6.730;2023-03-01T06:48:52;-4.10;99.90
56542;DHT22;42438;53.174;6.730;2023-03-01T06:51:23;-4.30;99.90
56542;DHT22;42438;53.174;6.730;2023-03-01T06:53:54;-4.40;99.90
56542;DHT22;42438;53.174;6.730;2023-03-01T06:56:24;-4.30;99.90
56542;DHT22;42438;53.174;6.730;2023-03-01T06:58:55;-4.30;99.90
56542;DHT22;42438;53.174;6.730;2023-03-01T07:01:26;-4.30;99.90
56542;DHT22;42438;53.174;6.730;2023-03-01T07:03:56;-3.50;99.90
56542;DHT22;42438;53.174;6.730;2023-03-01T07:06:27;-4.10;99.90
56542;DHT22;42438;53.174;6.730;2023-03-01T07:08:58;-4.10;99.90
56542;DHT22;42438;53.174;6.730;2023-03-01T07:11:29;-3.80;99.90
56542;DHT22;42438;53.174;6.730;2023-03-01T07:13:59;-3.90;99.90
56542;DHT22;42438;53.174;6.730;2023-03-01T07:16:30;-4.00;99.90
56542;DHT22;42438;53.174;6.730;2023-03-01T07:19:01;-4.00;99.90
56542;DHT22;42438;53.174;6.730;2023-03-01T07:21:31;-3.90;99.90
56542;DHT22;42438;53.174;6.730;2023-03-01T07:24:02;-3.80;99.90
56542;DHT22;42438;53.174;6.730;2023-03-01T07:26:33;-3.60;99.90
56542;DHT22;42438;53.174;6.730;2023-03-01T07:29:06;-3.70;99.90
56542;DHT22;42438;53.174;6.730;2023-03-01T07:31:37;-3.60;99.90
56542;DHT22;42438;53.174;6.730;2023-03-01T07:34:08;-3.60;99.90
56542;DHT22;42438;53.174;6.730;2023-03-01T07:36:38;-3.60;99.90
56542;DHT22;42438;53.174;6.730;2023-03-01T07:39:10;-3.20;99.90
56542;DHT22;42438;53.174;6.730;2023-03-01T07:41:41;-3.00;99.90
56542;DHT22;42438;53.174;6.730;2023-03-01T07:44:12;-2.90;99.90
56542;DHT22;42438;53.174;6.730;2023-03-01T07:46:43;-2.60;99.90
56542;DHT22;42438;53.174;6.730;2023-03-01T07:49:14;-2.40;99.90
56542;DHT22;42438;53.174;6.730;2023-03-01T07:51:45;-2.30;99.90
56542;DHT22;42438;53.174;6.730;2023-03-01T07:54:15;-2.30;99.90
56542;DHT22;42438;53.174;6.730;2023-03-01T07:56:46;-1.90;99.90
56542;DHT22;42438;53.174;6.730;2023-03-01T07:59:17;-2.00;99.90
56542;DHT22;42438;53.174;6.730;2023-03-01T08:01:47;-1.60;99.90
56542;DHT22;42438;53.174;6.730;2023-03-01T08:04:18;-1.60;99.90
56542;DHT22;42438;53.174;6.730;2023-03-01T08:06:49;-1.50;99.90
56542;DHT22;42438;53.174;6.730;2023-03-01T08:09:19;-1.30;99.90
56542;DHT22;42438;53.174;6.730;2023-03-01T08:11:50;-0.40;99.90
56542;DHT22;42438;53.174;6.730;2023-03-01T08:14:21;-1.10;99.90
56542;DHT22;42438;53.174;6.730;2023-03-01T08:16:52;-1.00;99.90
56542;DHT22;42438;53.174;6.730;2023-03-01T08:19:22;-1.10;99.90
56542;DHT22;42438;53.174;6.730;2023-03-01T08:21:53;-1.00;99.90
56542;DHT22;42438;53.174;6.730;2023-03-01T08:24:24;0.20;99.90
56542;DHT22;42438;53.174;6.730;2023-03-01T08:26:55;-0.70;99.90
56542;DHT22;42438;53.174;6.730;2023-03-01T08:29:26;-0.60;99.90
56542;DHT22;42438;53.174;6.730;2023-03-01T08:31:56;-0.60;99.90
56542;DHT22;42438;53.174;6.730;2023-03-01T08:34:27;-0.70;99.90
56542;DHT22;42438;53.174;6.730;2023-03-01T08:36:58;-0.60;99.90
56542;DHT22;42438;53.174;6.730;2023-03-01T08:39:28;-0.30;99.90
56542;DHT22;42438;53.174;6.730;2023-03-01T08:41:59;-0.20;99.90
56542;DHT22;42438;53.174;6.730;2023-03-01T08:44:30;-0.20;99.90
56542;DHT22;42438;53.174;6.730;2023-03-01T08:47:00;0.10;99.90
56542;DHT22;42438;53.174;6.730;2023-03-01T08:49:32;0.00;99.90
56542;DHT22;42438;53.174;6.730;2023-03-01T08:52:03;0.20;99.90
56542;DHT22;42438;53.174;6.730;2023-03-01T08:54:34;0.40;99.90
56542;DHT22;42438;53.174;6.730;2023-03-01T08:57:04;0.50;99.90
56542;DHT22;42438;53.174;6.730;2023-03-01T08:59:35;0.70;99.90
56542;DHT22;42438;53.174;6.730;2023-03-01T09:02:13;1.60;99.90
56542;DHT22;42438;53.174;6.730;2023-03-01T09:04:44;1.00;99.90
56542;DHT22;42438;53.174;6.730;2023-03-01T09:07:15;1.30;99.90
56542;DHT22;42438;53.174;6.730;2023-03-01T09:09:46;1.30;99.90
56542;DHT22;42438;53.174;6.730;2023-03-01T09:12:16;1.40;99.90
56542;DHT22;42438;53.174;6.730;2023-03-01T09:14:47;1.70;99.90
56542;DHT22;42438;53.174;6.730;2023-03-01T09:17:18;1.80;99.90
56542;DHT22;42438;53.174;6.730;2023-03-01T09:19:48;1.90;99.90
56542;DHT22;42438;53.174;6.730;2023-03-01T09:22:19;2.30;99.90
56542;DHT22;42438;53.174;6.730;2023-03-01T09:24:50;2.30;99.90
56542;DHT22;42438;53.174;6.730;2023-03-01T09:27:21;2.30;99.90
56542;DHT22;42438;53.174;6.730;2023-03-01T09:29:51;2.60;99.90
56542;DHT22;42438;53.174;6.730;2023-03-01T09:32:22;2.80;99.90
56542;DHT22;42438;53.174;6.730;2023-03-01T09:34:53;2.90;99.90
56542;DHT22;42438;53.174;6.730;2023-03-01T09:37:36;3.00;99.90
56542;DHT22;42438;53.174;6.730;2023-03-01T09:40:18;4.00;99.90
56542;DHT22;42438;53.174;6.730;2023-03-01T09:43:00;3.20;99.90
56542;DHT22;42438;53.174;6.730;2023-03-01T09:45:41;3.50;99.90
56542;DHT22;42438;53.174;6.730;2023-03-01T09:48:19;3.60;99.90
56542;DHT22;42438;53.174;6.730;2023-03-01T09:50:52;3.70;99.90
56542;DHT22;42438;53.174;6.730;2023-03-01T09:53:33;3.80;99.90
56542;DHT22;42438;53.174;6.730;2023-03-01T09:56:17;4.00;99.90
56542;DHT22;42438;53.174;6.730;2023-03-01T09:59:15;3.90;99.90
56542;DHT22;42438;53.174;6.730;2023-03-01T10:01:59;4.20;99.90
56542;DHT22;42438;53.174;6.730;2023-03-01T10:07:33;4.30;99.90
56542;DHT22;42438;53.174;6.730;2023-03-01T10:10:08;4.50;99.90
56542;DHT22;42438;53.174;6.730;2023-03-01T10:12:40;4.60;99.90
56542;DHT22;42438;53.174;6.730;2023-03-01T10:15:22;4.70;99.90
56542;DHT22;42438;53.174;6.730;2023-03-01T10:17:56;4.80;99.90
56542;DHT22;42438;53.174;6.730;2023-03-01T10:20:50;5.00;99.90
56542;DHT22;42438;53.174;6.730;2023-03-01T10:23:23;5.00;99.90
56542;DHT22;42438;53.174;6.730;2023-03-01T10:29:05;5.20;99.90
56542;DHT22;42438;53.174;6.730;2023-03-01T10:31:49;5.30;99.90
56542;DHT22;42438;53.174;6.730;2023-03-01T10:34:27;5.40;99.90
56542;DHT22;42438;53.174;6.730;2023-03-01T10:37:08;5.50;99.90
56542;DHT22;42438;53.174;6.730;2023-03-01T10:42:35;5.70;99.90
56542;DHT22;42438;53.174;6.730;2023-03-01T10:45:34;5.80;99.90
56542;DHT22;42438;53.174;6.730;2023-03-01T10:50:45;6.50;99.90
56542;DHT22;42438;53.174;6.730;2023-03-01T10:53:29;6.10;99.90
56542;DHT22;42438;53.174;6.730;2023-03-01T10:56:10;6.20;99.90
56542;DHT22;42438;53.174;6.730;2023-03-01T10:59:09;6.30;99.90
56542;DHT22;42438;53.174;6.730;2023-03-01T11:02:03;6.40;99.90
56542;DHT22;42438;53.174;6.730;2023-03-01T11:04:34;6.50;99.90
56542;DHT22;42438;53.174;6.730;2023-03-01T11:07:05;6.60;99.90
56542;DHT22;42438;53.174;6.730;2023-03-01T11:09:35;6.70;99.90
56542;DHT22;42438;53.174;6.730;2023-03-01T11:12:14;6.70;99.90
56542;DHT22;42438;53.174;6.730;2023-03-01T11:14:48;6.80;99.90
56542;DHT22;42438;53.174;6.730;2023-03-01T11:22:49;6.80;99.90
56542;DHT22;42438;53.174;6.730;2023-03-01T11:25:29;6.90;99.90
56542;DHT22;42438;53.174;6.730;2023-03-01T11:28:02;7.00;99.90
56542;DHT22;42438;53.174;6.730;2023-03-01T11:36:32;7.20;99.90
56542;DHT22;42438;53.174;6.730;2023-03-01T11:39:31;7.30;99.90
56542;DHT22;42438;53.174;6.730;2023-03-01T11:44:59;7.30;99.90
56542;DHT22;42438;53.174;6.730;2023-03-01T11:55:52;7.50;99.90
56542;DHT22;42438;53.174;6.730;2023-03-01T11:58:38;7.60;99.90
56542;DHT22;42438;53.174;6.730;2023-03-01T12:10:32;7.60;99.90
56542;DHT22;42438;53.174;6.730;2023-03-01T12:19:49;7.60;99.90
56542;DHT22;42438;53.174;6.730;2023-03-01T12:29:34;7.90;99.90
56542;DHT22;42438;53.174;6.730;2023-03-01T12:32:19;8.00;99.90
56542;DHT22;42438;53.174;6.730;2023-03-01T12:50:12;8.50;99.90
56542;DHT22;42438;53.174;6.730;2023-03-01T12:52:43;8.50;99.90
56542;DHT22;42438;53.174;6.730;2023-03-01T12:55:31;8.40;99.90
56542;DHT22;42438;53.174;6.730;2023-03-01T13:01:16;8.40;99.90
56542;DHT22;42438;53.174;6.730;2023-03-01T13:09:39;8.60;99.90
56542;DHT22;42438;53.174;6.730;2023-03-01T13:12:46;8.70;99.90
56542;DHT22;42438;53.174;6.730;2023-03-01T13:17:56;8.90;99.90
56542;DHT22;42438;53.174;6.730;2023-03-01T13:20:48;8.90;99.90
56542;DHT22;42438;53.174;6.730;2023-03-01T13:26:00;8.90;99.90
56542;DHT22;42438;53.174;6.730;2023-03-01T13:31:07;8.70;99.90
56542;DHT22;42438;53.174;6.730;2023-03-01T13:33:49;8.60;99.90
56542;DHT22;42438;53.174;6.730;2023-03-01T13:39:01;8.70;99.90
56542;DHT22;42438;53.174;6.730;2023-03-01T13:44:46;8.80;99.90
56542;DHT22;42438;53.174;6.730;2023-03-01T13:47:17;8.80;99.90
56542;DHT22;42438;53.174;6.730;2023-03-01T13:49:56;8.80;99.90
56542;DHT22;42438;53.174;6.730;2023-03-01T13:52:39;8.80;99.90
56542;DHT22;42438;53.174;6.730;2023-03-01T13:57:57;8.90;99.90
56542;DHT22;42438;53.174;6.730;2023-03-01T14:00:35;8.90;99.90
56542;DHT22;42438;53.174;6.730;2023-03-01T14:03:13;8.80;99.90
56542;DHT22;42438;53.174;6.730;2023-03-01T14:05:58;8.80;99.90
56542;DHT22;42438;53.174;6.730;2023-03-01T14:08:30;8.80;99.90
56542;DHT22;42438;53.174;6.730;2023-03-01T14:16:53;8.80;99.90
56542;DHT22;42438;53.174;6.730;2023-03-01T14:19:28;8.70;99.90
56542;DHT22;42438;53.174;6.730;2023-03-01T14:24:50;8.60;99.90
56542;DHT22;42438;53.174;6.730;2023-03-01T14:27:25;8.60;99.90
56542;DHT22;42438;53.174;6.730;2023-03-01T14:29:59;8.60;99.90
56542;DHT22;42438;53.174;6.730;2023-03-01T14:32:32;8.60;99.90
56542;DHT22;42438;53.174;6.730;2023-03-01T14:35:03;8.60;99.90
56542;DHT22;42438;53.174;6.730;2023-03-01T14:37:35;8.50;99.90
56542;DHT22;42438;53.174;6.730;2023-03-01T14:42:54;8.40;99.90
56542;DHT22;42438;53.174;6.730;2023-03-01T14:45:27;8.40;99.90
56542;DHT22;42438;53.174;6.730;2023-03-01T14:48:01;8.30;99.90
56542;DHT22;42438;53.174;6.730;2023-03-01T14:50:33;8.30;99.90
56542;DHT22;42438;53.174;6.730;2023-03-01T14:53:05;8.30;99.90
56542;DHT22;42438;53.174;6.730;2023-03-01T14:55:41;8.20;99.90
56542;DHT22;42438;53.174;6.730;2023-03-01T14:58:19;8.30;99.90
56542;DHT22;42438;53.174;6.730;2023-03-01T15:00:56;8.20;99.90
56542;DHT22;42438;53.174;6.730;2023-03-01T15:03:33;8.20;99.90
56542;DHT22;42438;53.174;6.730;2023-03-01T15:06:06;8.10;99.90
56542;DHT22;42438;53.174;6.730;2023-03-01T15:08:42;8.00;99.90
56542;DHT22;42438;53.174;6.730;2023-03-01T15:11:30;8.00;99.90
56542;DHT22;42438;53.174;6.730;2023-03-01T15:14:02;7.90;99.90
56542;DHT22;42438;53.174;6.730;2023-03-01T15:16:52;7.90;99.90
56542;DHT22;42438;53.174;6.730;2023-03-01T15:19:24;7.80;99.90
56542;DHT22;42438;53.174;6.730;2023-03-01T15:21:56;7.80;99.90
56542;DHT22;42438;53.174;6.730;2023-03-01T15:24:27;7.70;99.90
56542;DHT22;42438;53.174;6.730;2023-03-01T15:27:00;7.70;99.90
56542;DHT22;42438;53.174;6.730;2023-03-01T15:29:37;7.70;99.90
56542;DHT22;42438;53.174;6.730;2023-03-01T15:32:32;7.60;99.90
56542;DHT22;42438;53.174;6.730;2023-03-01T15:38:29;7.50;99.90
56542;DHT22;42438;53.174;6.730;2023-03-01T15:41:03;7.50;99.90
56542;DHT22;42438;53.174;6.730;2023-03-01T15:43:41;7.40;99.90
56542;DHT22;42438;53.174;6.730;2023-03-01T15:46:19;7.40;99.90
56542;DHT22;42438;53.174;6.730;2023-03-01T15:48:59;7.30;99.90
56542;DHT22;42438;53.174;6.730;2023-03-01T15:51:35;7.30;99.90
56542;DHT22;42438;53.174;6.730;2023-03-01T15:54:19;7.30;99.90
56542;DHT22;42438;53.174;6.730;2023-03-01T15:56:51;7.20;99.90
56542;DHT22;42438;53.174;6.730;2023-03-01T15:59:22;7.20;99.90
56542;DHT22;42438;53.174;6.730;2023-03-01T16:01:53;7.10;99.90
56542;DHT22;42438;53.174;6.730;2023-03-01T16:04:23;7.10;99.90
56542;DHT22;42438;53.174;6.730;2023-03-01T16:06:54;7.10;99.90
56542;DHT22;42438;53.174;6.730;2023-03-01T16:09:25;7.10;99.90
56542;DHT22;42438;53.174;6.730;2023-03-01T16:11:56;7.00;99.90
56542;DHT22;42438;53.174;6.730;2023-03-01T16:14:28;7.00;99.90
56542;DHT22;42438;53.174;6.730;2023-03-01T16:16:58;6.90;99.90
56542;DHT22;42438;53.174;6.730;2023-03-01T16:19:29;6.90;99.90
56542;DHT22;42438;53.174;6.730;2023-03-01T16:22:00;6.80;99.90
56542;DHT22;42438;53.174;6.730;2023-03-01T16:24:31;6.70;99.90
56542;DHT22;42438;53.174;6.730;2023-03-01T16:27:02;6.70;99.90
56542;DHT22;42438;53.174;6.730;2023-03-01T16:29:34;6.70;99.90
56542;DHT22;42438;53.174;6.730;2023-03-01T16:32:05;6.60;99.90
56542;DHT22;42438;53.174;6.730;2023-03-01T16:34:36;6.50;99.90
56542;DHT22;42438;53.174;6.730;2023-03-01T16:37:06;6.50;99.90
56542;DHT22;42438;53.174;6.730;2023-03-01T16:39:38;6.40;99.90
56542;DHT22;42438;53.174;6.730;2023-03-01T16:42:09;6.40;99.90
56542;DHT22;42438;53.174;6.730;2023-03-01T16:44:39;6.30;99.90
56542;DHT22;42438;53.174;6.730;2023-03-01T16:47:10;6.30;99.90
56542;DHT22;42438;53.174;6.730;2023-03-01T16:49:41;6.20;99.90
56542;DHT22;42438;53.174;6.730;2023-03-01T16:52:11;6.10;99.90
56542;DHT22;42438;53.174;6.730;2023-03-01T16:54:42;6.10;99.90
56542;DHT22;42438;53.174;6.730;2023-03-01T16:57:13;6.00;99.90
56542;DHT22;42438;53.174;6.730;2023-03-01T16:59:44;5.90;99.90
56542;DHT22;42438;53.174;6.730;2023-03-01T17:02:15;5.80;99.90
56542;DHT22;42438;53.174;6.730;2023-03-01T17:04:57;5.80;99.90
56542;DHT22;42438;53.174;6.730;2023-03-01T17:07:29;5.70;99.90
56542;DHT22;42438;53.174;6.730;2023-03-01T17:10:05;5.60;99.90
56542;DHT22;42438;53.174;6.730;2023-03-01T17:12:38;5.60;99.90
56542;DHT22;42438;53.174;6.730;2023-03-01T17:15:09;5.60;99.90
56542;DHT22;42438;53.174;6.730;2023-03-01T17:17:42;5.50;99.90
56542;DHT22;42438;53.174;6.730;2023-03-01T17:20:12;5.50;99.90
56542;DHT22;42438;53.174;6.730;2023-03-01T17:22:43;5.50;99.90
56542;DHT22;42438;53.174;6.730;2023-03-01T17:25:14;5.50;99.90
56542;DHT22;42438;53.174;6.730;2023-03-01T17:27:45;5.40;99.90
56542;DHT22;42438;53.174;6.730;2023-03-01T17:30:16;5.40;99.90
56542;DHT22;42438;53.174;6.730;2023-03-01T17:32:47;5.30;99.90
56542;DHT22;42438;53.174;6.730;2023-03-01T17:35:18;5.20;99.90
56542;DHT22;42438;53.174;6.730;2023-03-01T17:37:49;5.10;99.90
56542;DHT22;42438;53.174;6.730;2023-03-01T17:40:19;5.00;99.90
56542;DHT22;42438;53.174;6.730;2023-03-01T17:42:50;4.90;99.90
56542;DHT22;42438;53.174;6.730;2023-03-01T17:45:20;4.90;99.90
56542;DHT22;42438;53.174;6.730;2023-03-01T17:47:51;4.90;99.90
56542;DHT22;42438;53.174;6.730;2023-03-01T17:50:22;4.90;99.90
56542;DHT22;42438;53.174;6.730;2023-03-01T17:52:52;4.80;99.90
56542;DHT22;42438;53.174;6.730;2023-03-01T17:55:27;4.80;99.90
56542;DHT22;42438;53.174;6.730;2023-03-01T17:57:58;4.80;99.90
56542;DHT22;42438;53.174;6.730;2023-03-01T18:00:29;4.60;99.90
56542;DHT22;42438;53.174;6.730;2023-03-01T18:03:00;4.50;99.90
56542;DHT22;42438;53.174;6.730;2023-03-01T18:05:35;4.50;99.90
56542;DHT22;42438;53.174;6.730;2023-03-01T18:08:07;4.30;99.90
56542;DHT22;42438;53.174;6.730;2023-03-01T18:10:37;4.30;99.90
56542;DHT22;42438;53.174;6.730;2023-03-01T18:13:08;4.20;99.90
56542;DHT22;42438;53.174;6.730;2023-03-01T18:15:39;4.10;99.90
56542;DHT22;42438;53.174;6.730;2023-03-01T18:18:10;4.10;99.90
56542;DHT22;42438;53.174;6.730;2023-03-01T18:20:40;3.90;99.90
56542;DHT22;42438;53.174;6.730;2023-03-01T18:23:11;4.00;99.90
56542;DHT22;42438;53.174;6.730;2023-03-01T18:25:42;3.80;99.90
56542;DHT22;42438;53.174;6.730;2023-03-01T18:28:12;3.80;99.90
56542;DHT22;42438;53.174;6.730;2023-03-01T18:30:43;3.70;99.90
56542;DHT22;42438;53.174;6.730;2023-03-01T18:35:45;3.50;99.90
56542;DHT22;42438;53.174;6.730;2023-03-01T18:38:16;3.40;99.90
56542;DHT22;42438;53.174;6.730;2023-03-01T18:40:47;3.40;99.90
56542;DHT22;42438;53.174;6.730;2023-03-01T18:43:18;3.30;99.90
56542;DHT22;42438;53.174;6.730;2023-03-01T18:45:56;3.10;99.90
56542;DHT22;42438;53.174;6.730;2023-03-01T18:48:27;3.10;99.90
56542;DHT22;42438;53.174;6.730;2023-03-01T18:51:16;3.10;99.90
56542;DHT22;42438;53.174;6.730;2023-03-01T18:53:47;2.90;99.90
56542;DHT22;42438;53.174;6.730;2023-03-01T18:56:18;3.10;99.90
56542;DHT22;42438;53.174;6.730;2023-03-01T18:58:49;3.00;99.90
56542;DHT22;42438;53.174;6.730;2023-03-01T19:01:22;3.00;99.90
56542;DHT22;42438;53.174;6.730;2023-03-01T19:03:54;3.10;99.90
56542;DHT22;42438;53.174;6.730;2023-03-01T19:06:31;3.00;99.90
56542;DHT22;42438;53.174;6.730;2023-03-01T19:09:03;3.00;99.90
56542;DHT22;42438;53.174;6.730;2023-03-01T19:11:34;3.00;99.90
56542;DHT22;42438;53.174;6.730;2023-03-01T19:14:04;3.10;99.90
56542;DHT22;42438;53.174;6.730;2023-03-01T19:16:35;3.50;99.90
56542;DHT22;42438;53.174;6.730;2023-03-01T19:19:06;3.10;99.90
56542;DHT22;42438;53.174;6.730;2023-03-01T19:21:39;3.10;99.90
56542;DHT22;42438;53.174;6.730;2023-03-01T19:24:09;3.10;99.90
56542;DHT22;42438;53.174;6.730;2023-03-01T19:26:40;3.20;99.90
56542;DHT22;42438;53.174;6.730;2023-03-01T19:29:11;3.20;99.90
56542;DHT22;42438;53.174;6.730;2023-03-01T19:31:42;3.20;99.90
56542;DHT22;42438;53.174;6.730;2023-03-01T19:34:13;3.90;99.90
56542;DHT22;42438;53.174;6.730;2023-03-01T19:36:44;3.30;99.90
56542;DHT22;42438;53.174;6.730;2023-03-01T19:39:16;3.20;99.90
56542;DHT22;42438;53.174;6.730;2023-03-01T19:41:47;3.20;99.90
56542;DHT22;42438;53.174;6.730;2023-03-01T19:44:18;3.40;99.90
56542;DHT22;42438;53.174;6.730;2023-03-01T19:46:55;3.30;99.90
56542;DHT22;42438;53.174;6.730;2023-03-01T19:49:28;3.40;99.90
56542;DHT22;42438;53.174;6.730;2023-03-01T19:51:59;3.40;99.90
56542;DHT22;42438;53.174;6.730;2023-03-01T19:54:30;3.30;99.90
56542;DHT22;42438;53.174;6.730;2023-03-01T19:57:01;3.40;99.90
56542;DHT22;42438;53.174;6.730;2023-03-01T19:59:32;3.30;99.90
56542;DHT22;42438;53.174;6.730;2023-03-01T20:02:03;3.40;99.90
56542;DHT22;42438;53.174;6.730;2023-03-01T20:04:34;3.40;99.90
56542;DHT22;42438;53.174;6.730;2023-03-01T20:07:05;3.40;99.90
56542;DHT22;42438;53.174;6.730;2023-03-01T20:09:35;3.30;99.90
56542;DHT22;42438;53.174;6.730;2023-03-01T20:12:06;3.30;99.90
56542;DHT22;42438;53.174;6.730;2023-03-01T20:14:38;3.40;99.90
56542;DHT22;42438;53.174;6.730;2023-03-01T20:17:08;4.20;99.90
56542;DHT22;42438;53.174;6.730;2023-03-01T20:19:39;3.30;99.90
56542;DHT22;42438;53.174;6.730;2023-03-01T20:22:10;3.40;99.90
56542;DHT22;42438;53.174;6.730;2023-03-01T20:24:44;3.40;99.90
56542;DHT22;42438;53.174;6.730;2023-03-01T20:27:14;3.30;99.90
56542;DHT22;42438;53.174;6.730;2023-03-01T20:29:45;3.30;99.90
56542;DHT22;42438;53.174;6.730;2023-03-01T20:32:16;3.40;99.90
56542;DHT22;42438;53.174;6.730;2023-03-01T20:34:47;3.30;99.90
56542;DHT22;42438;53.174;6.730;2023-03-01T20:37:18;3.40;99.90
56542;DHT22;42438;53.174;6.730;2023-03-01T20:39:48;3.20;99.90
56542;DHT22;42438;53.174;6.730;2023-03-01T20:42:19;3.20;99.90
56542;DHT22;42438;53.174;6.730;2023-03-01T20:44:50;3.30;99.90
56542;DHT22;42438;53.174;6.730;2023-03-01T20:47:20;3.30;99.90
56542;DHT22;42438;53.174;6.730;2023-03-01T20:49:52;3.30;99.90
56542;DHT22;42438;53.174;6.730;2023-03-01T20:52:23;3.10;99.90
56542;DHT22;42438;53.174;6.730;2023-03-01T20:54:53;3.10;99.90
56542;DHT22;42438;53.174;6.730;2023-03-01T20:57:24;3.20;99.90
56542;DHT22;42438;53.174;6.730;2023-03-01T20:59:55;3.10;99.90
56542;DHT22;42438;53.174;6.730;2023-03-01T21:02:26;3.10;99.90
56542;DHT22;42438;53.174;6.730;2023-03-01T21:04:56;3.10;99.90
56542;DHT22;42438;53.174;6.730;2023-03-01T21:07:27;3.20;99.90
56542;DHT22;42438;53.174;6.730;2023-03-01T21:09:58;3.20;99.90
56542;DHT22;42438;53.174;6.730;2023-03-01T21:12:29;3.20;99.90
56542;DHT22;42438;53.174;6.730;2023-03-01T21:15:00;3.10;99.90
56542;DHT22;42438;53.174;6.730;2023-03-01T21:17:31;3.10;99.90
56542;DHT22;42438;53.174;6.730;2023-03-01T21:20:02;3.30;99.90
56542;DHT22;42438;53.174;6.730;2023-03-01T21:22:34;3.20;99.90
56542;DHT22;42438;53.174;6.730;2023-03-01T21:25:05;3.20;99.90
56542;DHT22;42438;53.174;6.730;2023-03-01T21:27:37;3.10;99.90
56542;DHT22;42438;53.174;6.730;2023-03-01T21:30:09;3.30;99.90
56542;DHT22;42438;53.174;6.730;2023-03-01T21:32:40;3.20;99.90
56542;DHT22;42438;53.174;6.730;2023-03-01T21:35:10;3.20;99.90
56542;DHT22;42438;53.174;6.730;2023-03-01T21:37:41;3.10;99.90
56542;DHT22;42438;53.174;6.730;2023-03-01T21:40:12;3.10;99.90
56542;DHT22;42438;53.174;6.730;2023-03-01T21:42:43;3.20;99.90
56542;DHT22;42438;53.174;6.730;2023-03-01T21:45:14;3.10;99.90
56542;DHT22;42438;53.174;6.730;2023-03-01T21:47:44;3.10;99.90
56542;DHT22;42438;53.174;6.730;2023-03-01T21:50:15;3.10;99.90
56542;DHT22;42438;53.174;6.730;2023-03-01T21:52:46;3.10;99.90
56542;DHT22;42438;53.174;6.730;2023-03-01T21:55:16;3.00;99.90
56542;DHT22;42438;53.174;6.730;2023-03-01T21:57:47;3.20;99.90
56542;DHT22;42438;53.174;6.730;2023-03-01T22:00:18;3.00;99.90
56542;DHT22;42438;53.174;6.730;2023-03-01T22:02:54;3.00;99.90
56542;DHT22;42438;53.174;6.730;2023-03-01T22:05:27;3.00;99.90
56542;DHT22;42438;53.174;6.730;2023-03-01T22:08:00;3.10;99.90
56542;DHT22;42438;53.174;6.730;2023-03-01T22:10:32;3.00;99.90
56542;DHT22;42438;53.174;6.730;2023-03-01T22:13:03;3.00;99.90
56542;DHT22;42438;53.174;6.730;2023-03-01T22:15:34;3.00;99.90
56542;DHT22;42438;53.174;6.730;2023-03-01T22:18:09;3.00;99.90
56542;DHT22;42438;53.174;6.730;2023-03-01T22:20:40;2.90;99.90
56542;DHT22;42438;53.174;6.730;2023-03-01T22:23:11;2.90;99.90
56542;DHT22;42438;53.174;6.730;2023-03-01T22:25:42;2.90;99.90
56542;DHT22;42438;53.174;6.730;2023-03-01T22:28:12;2.80;99.90
56542;DHT22;42438;53.174;6.730;2023-03-01T22:30:43;3.00;99.90
56542;DHT22;42438;53.174;6.730;2023-03-01T22:33:14;2.80;99.90
56542;DHT22;42438;53.174;6.730;2023-03-01T22:35:45;2.90;99.90
56542;DHT22;42438;53.174;6.730;2023-03-01T22:38:18;2.80;99.90
56542;DHT22;42438;53.174;6.730;2023-03-01T22:41:00;2.70;99.90